Time;durP1;ratioP1;P1;durP2;ratioP2;P2;SDS_P1;SDS_P2;PMS_P1;PMS_P2;Temp;Humidity;BMP_temperature;BMP_pressure;BME280_temperature;BME280_humidity;BME280_pressure;Samples;Min_cycle;Max_cycle;Signal;HPM_P1;HPM_P2
2023/02/05 00:01:18;;;;;;;;;;;7.40;99.90;;;;;;4962282;28;20057;-67
2023/02/05 00:03:44;;;;;;;;;;;7.40;99.90;;;;;;4963416;28;20015;-66
2023/02/05 00:06:09;;;;;;;;;;;7.40;99.90;;;;;;4966701;28;19916;-66
2023/02/05 00:08:35;;;;;;;;;;;7.40;99.90;;;;;;4965401;28;19913;-66
2023/02/05 00:11:08;;;;;;;;;;;7.40;99.90;;;;;;4967261;28;21002;-67
2023/02/05 00:13:37;;;;;;;;;;;7.30;99.90;;;;;;4969711;28;19916;-67
2023/02/05 00:16:29;;;;;;;;;;;7.30;99.90;;;;;;4971226;28;19920;-67
2023/02/05 00:18:55;;;;;;;;;;;7.30;99.90;;;;;;4964214;28;19917;-67
2023/02/05 00:21:22;;;;;;;;;;;7.30;99.90;;;;;;4968382;28;19912;-66
2023/02/05 00:23:48;;;;;;;;;;;7.30;99.90;;;;;;4967910;28;19919;-66
2023/02/05 00:26:13;;;;;;;;;;;7.30;99.90;;;;;;4967807;28;19916;-67
2023/02/05 00:28:39;;;;;;;;;;;7.30;99.90;;;;;;4969745;28;20385;-67
2023/02/05 00:31:06;;;;;;;;;;;7.20;99.90;;;;;;4968341;28;19916;-66
2023/02/05 00:33:32;;;;;;;;;;;7.20;99.90;;;;;;4966942;28;20344;-79
2023/02/05 00:35:58;;;;;;;;;;;7.20;99.90;;;;;;4968351;28;19927;-77
2023/02/05 00:38:24;;;;;;;;;;;7.20;99.90;;;;;;4968043;28;19916;-67
2023/02/05 00:40:49;;;;;;;;;;;7.20;99.90;;;;;;4968207;28;19920;-67
2023/02/05 00:43:15;;;;;;;;;;;7.20;99.90;;;;;;4968095;28;19965;-67
2023/02/05 00:45:40;;;;;;;;;;;7.20;99.90;;;;;;4968537;28;20856;-67
2023/02/05 00:48:06;;;;;;;;;;;7.20;99.90;;;;;;4969127;28;19912;-67
2023/02/05 00:50:33;;;;;;;;;;;7.20;99.90;;;;;;4948181;28;19924;-67
2023/02/05 00:52:58;;;;;;;;;;;7.20;99.90;;;;;;4969172;28;20003;-67
2023/02/05 00:55:24;;;;;;;;;;;7.20;99.90;;;;;;4947872;28;19924;-68
2023/02/05 00:57:50;;;;;;;;;;;7.30;99.90;;;;;;4968138;28;19916;-72
2023/02/05 01:00:16;;;;;;;;;;;7.30;99.90;;;;;;4968787;28;19934;-76
2023/02/05 01:02:42;;;;;;;;;;;7.30;99.90;;;;;;4971697;28;20261;-67
2023/02/05 01:05:08;;;;;;;;;;;7.30;99.90;;;;;;4969937;28;19944;-77
2023/02/05 01:07:34;;;;;;;;;;;7.30;99.90;;;;;;4968196;28;19919;-74
2023/02/05 01:10:00;;;;;;;;;;;7.30;99.90;;;;;;4970074;28;19965;-80
2023/02/05 01:12:25;;;;;;;;;;;7.30;99.90;;;;;;4968968;28;19930;-79
2023/02/05 01:14:52;;;;;;;;;;;7.20;99.90;;;;;;4968991;28;19921;-68
2023/02/05 01:17:18;;;;;;;;;;;7.30;99.90;;;;;;4968644;28;19916;-67
2023/02/05 01:19:44;;;;;;;;;;;7.30;99.90;;;;;;4969946;28;19912;-68
2023/02/05 01:22:10;;;;;;;;;;;7.30;99.90;;;;;;4971632;28;20640;-67
2023/02/05 01:24:36;;;;;;;;;;;7.30;99.90;;;;;;4966983;28;19919;-67
2023/02/05 01:27:02;;;;;;;;;;;7.20;99.90;;;;;;4951164;28;23284;-78
2023/02/05 01:29:28;;;;;;;;;;;7.20;99.90;;;;;;4969659;28;19913;-79
2023/02/05 01:31:54;;;;;;;;;;;7.20;99.90;;;;;;4969021;28;19912;-78
2023/02/05 01:34:20;;;;;;;;;;;7.20;99.90;;;;;;4970615;28;20015;-75
2023/02/05 01:36:46;;;;;;;;;;;7.20;99.90;;;;;;4967663;28;19982;-75
2023/02/05 01:39:11;;;;;;;;;;;7.20;99.90;;;;;;4968366;28;19963;-68
2023/02/05 01:41:40;;;;;;;;;;;7.30;99.90;;;;;;4970414;28;20949;-66
2023/02/05 01:44:09;;;;;;;;;;;7.30;99.90;;;;;;4949755;28;20378;-73
2023/02/05 01:46:36;;;;;;;;;;;7.20;99.90;;;;;;4949435;28;20094;-80
2023/02/05 01:49:03;;;;;;;;;;;7.20;99.90;;;;;;4967636;28;19933;-67
2023/02/05 01:51:29;;;;;;;;;;;7.20;99.90;;;;;;4968434;28;19923;-66
2023/02/05 01:53:55;;;;;;;;;;;7.20;99.90;;;;;;4970059;28;19919;-69
2023/02/05 01:56:22;;;;;;;;;;;7.30;99.90;;;;;;4970853;28;19971;-69
2023/02/05 01:58:57;;;;;;;;;;;7.30;99.90;;;;;;4967795;28;19931;-66
2023/02/05 02:01:25;;;;;;;;;;;7.20;99.90;;;;;;4967980;28;19919;-67
2023/02/05 02:03:53;;;;;;;;;;;7.20;99.90;;;;;;4967794;28;20035;-66
2023/02/05 02:06:19;;;;;;;;;;;7.20;99.90;;;;;;4967282;28;19955;-67
2023/02/05 02:08:44;;;;;;;;;;;7.20;99.90;;;;;;4968136;28;19920;-66
2023/02/05 02:11:12;;;;;;;;;;;7.20;99.90;;;;;;4967318;28;20542;-77
2023/02/05 02:13:38;;;;;;;;;;;7.20;99.90;;;;;;4945559;28;20531;-72
2023/02/05 02:16:05;;;;;;;;;;;7.10;99.90;;;;;;4947227;28;20066;-67
2023/02/05 02:18:31;;;;;;;;;;;7.10;99.90;;;;;;4968175;28;19916;-67
2023/02/05 02:21:17;;;;;;;;;;;7.00;99.90;;;;;;4966748;28;19955;-67
2023/02/05 02:23:43;;;;;;;;;;;7.00;99.90;;;;;;4948125;28;20433;-67
2023/02/05 02:26:08;;;;;;;;;;;7.00;99.90;;;;;;4964792;28;19912;-66
2023/02/05 02:28:53;;;;;;;;;;;6.90;99.90;;;;;;4966110;28;20010;-79
2023/02/05 02:31:21;;;;;;;;;;;6.80;99.90;;;;;;4966460;28;20847;-68
2023/02/05 02:33:50;;;;;;;;;;;6.70;99.90;;;;;;4963648;28;19913;-67
2023/02/05 02:36:22;;;;;;;;;;;6.60;99.90;;;;;;4966225;28;20053;-66
2023/02/05 02:39:00;;;;;;;;;;;6.60;99.90;;;;;;4967446;28;19916;-68
2023/02/05 02:41:28;;;;;;;;;;;6.40;99.90;;;;;;4969011;28;19975;-67
2023/02/05 02:43:58;;;;;;;;;;;6.40;99.90;;;;;;4969264;28;20050;-67
2023/02/05 02:46:34;;;;;;;;;;;6.40;99.90;;;;;;4969511;28;19965;-70
2023/02/05 02:49:01;;;;;;;;;;;6.30;99.90;;;;;;4967696;28;19919;-80
2023/02/05 02:51:28;;;;;;;;;;;6.40;99.90;;;;;;4966006;28;20624;-77
2023/02/05 02:53:58;;;;;;;;;;;6.40;99.90;;;;;;4964434;28;19919;-67
2023/02/05 02:56:25;;;;;;;;;;;6.40;99.90;;;;;;4965494;28;20207;-66
2023/02/05 02:58:53;;;;;;;;;;;6.40;99.90;;;;;;4966106;28;19924;-74
2023/02/05 03:01:20;;;;;;;;;;;6.40;99.90;;;;;;4947128;28;19916;-67
2023/02/05 03:03:50;;;;;;;;;;;6.40;99.90;;;;;;4965170;28;19912;-78
2023/02/05 03:06:17;;;;;;;;;;;6.50;99.90;;;;;;4964965;28;20373;-66
2023/02/05 03:08:55;;;;;;;;;;;6.60;99.90;;;;;;4966774;28;20236;-66
2023/02/05 03:11:20;;;;;;;;;;;6.60;99.90;;;;;;4945998;28;19912;-78
2023/02/05 03:13:46;;;;;;;;;;;6.60;99.90;;;;;;4975884;28;19923;-69
2023/02/05 03:16:13;;;;;;;;;;;6.70;99.90;;;;;;4966180;28;19963;-66
2023/02/05 03:18:39;;;;;;;;;;;6.80;99.90;;;;;;4967012;28;19923;-67
2023/02/05 03:21:11;;;;;;;;;;;6.80;99.90;;;;;;4949605;28;20046;-67
2023/02/05 03:23:37;;;;;;;;;;;6.80;99.90;;;;;;4968099;28;19919;-67
2023/02/05 03:26:03;;;;;;;;;;;6.90;99.90;;;;;;4948900;28;20011;-67
2023/02/05 03:28:29;;;;;;;;;;;6.80;99.90;;;;;;4950527;28;20172;-67
2023/02/05 03:31:08;;;;;;;;;;;6.90;99.90;;;;;;4969680;28;19912;-66
2023/02/05 03:33:33;;;;;;;;;;;6.90;99.90;;;;;;4969203;28;20277;-67
2023/02/05 03:36:07;;;;;;;;;;;6.90;99.90;;;;;;4967193;28;19916;-66
2023/02/05 03:38:42;;;;;;;;;;;6.90;99.90;;;;;;4970020;28;19938;-68
2023/02/05 03:41:21;;;;;;;;;;;6.90;99.90;;;;;;4970213;28;19966;-67
2023/02/05 03:44:06;;;;;;;;;;;7.00;99.90;;;;;;4966729;28;19913;-67
2023/02/05 03:46:52;;;;;;;;;;;7.00;99.90;;;;;;4970715;28;21078;-66
2023/02/05 03:49:18;;;;;;;;;;;7.10;99.90;;;;;;4968100;28;19912;-67
2023/02/05 03:51:56;;;;;;;;;;;7.10;99.90;;;;;;4967770;28;23329;-67
2023/02/05 03:54:48;;;;;;;;;;;7.10;99.90;;;;;;4967625;28;19912;-66
2023/02/05 03:57:17;;;;;;;;;;;7.10;99.90;;;;;;4932185;28;19973;-79
2023/02/05 03:59:44;;;;;;;;;;;7.20;99.90;;;;;;4969867;28;19959;-77
2023/02/05 04:02:10;;;;;;;;;;;7.20;99.90;;;;;;4969964;28;19919;-78
2023/02/05 04:04:35;;;;;;;;;;;7.10;99.90;;;;;;4969010;28;19960;-77
2023/02/05 04:07:01;;;;;;;;;;;7.20;99.90;;;;;;4968813;28;19913;-77
2023/02/05 04:09:27;;;;;;;;;;;7.10;99.90;;;;;;4968470;28;20478;-75
2023/02/05 04:11:53;;;;;;;;;;;7.10;99.90;;;;;;4947705;28;20703;-66
2023/02/05 04:14:18;;;;;;;;;;;7.10;99.90;;;;;;4966063;28;21843;-69
2023/02/05 04:16:44;;;;;;;;;;;7.10;99.90;;;;;;4966278;28;19927;-77
2023/02/05 04:19:10;;;;;;;;;;;7.20;99.90;;;;;;4968600;28;19931;-71
2023/02/05 04:21:36;;;;;;;;;;;7.20;99.90;;;;;;4968553;28;21344;-69
2023/02/05 04:24:01;;;;;;;;;;;7.20;99.90;;;;;;4966193;28;19916;-77
2023/02/05 04:26:27;;;;;;;;;;;7.20;99.90;;;;;;4966448;28;19943;-68
2023/02/05 04:28:52;;;;;;;;;;;7.20;99.90;;;;;;4947528;28;19961;-68
2023/02/05 04:31:18;;;;;;;;;;;7.20;99.90;;;;;;4968559;28;19912;-68
2023/02/05 04:33:44;;;;;;;;;;;7.30;99.90;;;;;;4968796;28;21032;-77
2023/02/05 04:36:10;;;;;;;;;;;7.30;99.90;;;;;;4969027;28;20903;-67
2023/02/05 04:38:35;;;;;;;;;;;7.30;99.90;;;;;;4967735;28;19924;-75
2023/02/05 04:41:01;;;;;;;;;;;7.30;99.90;;;;;;4967789;28;19927;-67
2023/02/05 04:43:27;;;;;;;;;;;7.40;99.90;;;;;;4966994;28;20273;-68
2023/02/05 04:45:53;;;;;;;;;;;7.30;99.90;;;;;;4965790;28;19917;-68
2023/02/05 04:48:20;;;;;;;;;;;7.30;99.90;;;;;;4966217;28;19959;-71
2023/02/05 04:50:46;;;;;;;;;;;7.20;99.90;;;;;;4969899;28;19912;-67
2023/02/05 04:53:12;;;;;;;;;;;7.30;99.90;;;;;;4965333;28;19916;-67
2023/02/05 04:55:37;;;;;;;;;;;7.20;99.90;;;;;;4966597;28;19916;-67
2023/02/05 04:58:03;;;;;;;;;;;7.20;99.90;;;;;;4972557;28;19952;-72
2023/02/05 05:00:29;;;;;;;;;;;7.20;99.90;;;;;;4956303;28;21406;-69
2023/02/05 05:02:56;;;;;;;;;;;7.20;99.90;;;;;;4951566;28;20959;-68
2023/02/05 05:05:21;;;;;;;;;;;7.10;99.90;;;;;;4970902;28;20600;-68
2023/02/05 05:07:47;;;;;;;;;;;7.00;99.90;;;;;;4974558;28;19959;-76
2023/02/05 05:10:13;;;;;;;;;;;6.90;99.90;;;;;;4973111;28;19919;-89
2023/02/05 05:12:39;;;;;;;;;;;6.80;99.90;;;;;;4959067;28;19920;-67
2023/02/05 05:15:05;;;;;;;;;;;6.80;99.90;;;;;;4975895;28;19963;-76
2023/02/05 05:17:32;;;;;;;;;;;6.70;99.90;;;;;;4971148;28;19965;-68
2023/02/05 05:19:57;;;;;;;;;;;6.70;99.90;;;;;;4973098;28;20661;-69
2023/02/05 05:22:23;;;;;;;;;;;6.60;99.90;;;;;;4975078;28;20439;-68
2023/02/05 05:24:49;;;;;;;;;;;6.50;99.90;;;;;;4976243;28;19944;-65
2023/02/05 05:27:15;;;;;;;;;;;6.40;99.90;;;;;;4977508;28;19920;-67
2023/02/05 05:29:41;;;;;;;;;;;6.40;99.90;;;;;;4977398;28;20063;-67
2023/02/05 05:32:07;;;;;;;;;;;6.40;99.90;;;;;;4957082;28;19912;-78
2023/02/05 05:34:32;;;;;;;;;;;6.40;99.90;;;;;;4976790;28;19923;-85
2023/02/05 05:36:58;;;;;;;;;;;6.40;99.90;;;;;;4980207;28;20003;-67
2023/02/05 05:44:53;;;;;;;;;;;6.30;99.90;;;;;;4975253;28;20666;-69
2023/02/05 05:47:19;;;;;;;;;;;6.30;99.90;;;;;;4955876;28;19913;-67
2023/02/05 05:49:45;;;;;;;;;;;6.20;99.90;;;;;;4959373;28;19912;-81
2023/02/05 05:52:11;;;;;;;;;;;6.30;99.90;;;;;;4956678;28;19998;-83
2023/02/05 05:54:37;;;;;;;;;;;6.30;99.90;;;;;;4976794;28;23090;-68
2023/02/05 05:57:03;;;;;;;;;;;6.20;99.90;;;;;;4976294;28;19931;-67
2023/02/05 05:59:29;;;;;;;;;;;6.20;99.90;;;;;;4972778;28;19912;-67
2023/02/05 06:01:54;;;;;;;;;;;6.20;99.90;;;;;;4976928;28;21785;-73
2023/02/05 06:04:20;;;;;;;;;;;6.20;99.90;;;;;;4975029;28;19912;-75
2023/02/05 06:06:46;;;;;;;;;;;6.20;99.90;;;;;;4974319;28;19913;-67
2023/02/05 06:09:12;;;;;;;;;;;6.20;99.90;;;;;;4971851;28;20793;-68
2023/02/05 06:11:37;;;;;;;;;;;6.20;99.90;;;;;;4952018;28;19917;-83
2023/02/05 06:14:03;;;;;;;;;;;6.20;99.90;;;;;;4950758;28;19913;-78
2023/02/05 06:16:29;;;;;;;;;;;6.20;99.90;;;;;;4942851;28;19929;-78
2023/02/05 06:18:55;;;;;;;;;;;6.20;99.90;;;;;;4946983;28;19917;-66
2023/02/05 06:21:21;;;;;;;;;;;6.20;99.90;;;;;;4942393;28;19913;-83
2023/02/05 06:23:47;;;;;;;;;;;6.20;99.90;;;;;;4964886;28;23715;-81
2023/02/05 06:26:13;;;;;;;;;;;6.20;99.90;;;;;;4951681;28;19913;-65
2023/02/05 06:28:39;;;;;;;;;;;6.20;99.90;;;;;;4944722;28;19913;-83
2023/02/05 06:31:05;;;;;;;;;;;6.20;99.90;;;;;;4940760;28;19912;-78
2023/02/05 06:33:31;;;;;;;;;;;6.20;99.90;;;;;;4944116;28;20661;-85
2023/02/05 06:35:58;;;;;;;;;;;6.20;99.90;;;;;;4940017;28;20678;-75
2023/02/05 06:38:24;;;;;;;;;;;6.20;99.90;;;;;;4945808;28;19927;-68
2023/02/05 06:40:49;;;;;;;;;;;6.20;99.90;;;;;;4945736;28;19939;-74
2023/02/05 06:43:15;;;;;;;;;;;6.20;99.90;;;;;;4948041;28;23230;-67
2023/02/05 06:45:41;;;;;;;;;;;6.20;99.90;;;;;;4945337;28;20303;-68
2023/02/05 06:48:06;;;;;;;;;;;6.20;99.90;;;;;;4940242;28;19921;-71
2023/02/05 06:50:32;;;;;;;;;;;6.20;99.90;;;;;;4943278;28;20651;-68
2023/02/05 06:52:58;;;;;;;;;;;6.20;99.90;;;;;;4936628;28;19920;-67
2023/02/05 06:55:23;;;;;;;;;;;6.20;99.90;;;;;;4950680;28;19952;-69
2023/02/05 06:57:49;;;;;;;;;;;6.30;99.90;;;;;;4942158;28;19920;-65
2023/02/05 07:00:15;;;;;;;;;;;6.20;99.90;;;;;;4922375;28;19998;-73
2023/02/05 07:02:41;;;;;;;;;;;6.20;99.90;;;;;;4949381;28;19923;-66
2023/02/05 07:05:07;;;;;;;;;;;6.20;99.90;;;;;;4944286;28;20297;-67
2023/02/05 07:07:33;;;;;;;;;;;6.10;99.90;;;;;;4940312;28;19924;-67
2023/02/05 07:09:59;;;;;;;;;;;6.10;99.90;;;;;;4946769;28;21728;-66
2023/02/05 07:12:25;;;;;;;;;;;6.10;99.90;;;;;;4951695;28;19916;-67
2023/02/05 07:14:50;;;;;;;;;;;6.00;99.90;;;;;;4951234;28;20851;-70
2023/02/05 07:17:16;;;;;;;;;;;6.00;99.90;;;;;;4968722;28;19920;-70
2023/02/05 07:19:41;;;;;;;;;;;6.10;99.90;;;;;;5047245;28;19909;-80
2023/02/05 07:22:07;;;;;;;;;;;6.00;99.90;;;;;;5049047;28;19948;-83
2023/02/05 07:24:33;;;;;;;;;;;6.00;99.90;;;;;;5053233;28;19913;-78
2023/02/05 07:26:59;;;;;;;;;;;6.00;99.90;;;;;;5052310;28;19951;-74
2023/02/05 07:29:24;;;;;;;;;;;6.10;99.90;;;;;;5053095;28;20002;-76
2023/02/05 07:31:51;;;;;;;;;;;6.10;99.90;;;;;;5054321;28;20279;-80
2023/02/05 07:34:17;;;;;;;;;;;6.00;99.90;;;;;;5050646;28;20289;-74
2023/02/05 07:36:42;;;;;;;;;;;6.10;99.90;;;;;;5053019;28;19920;-79
2023/02/05 07:39:08;;;;;;;;;;;6.10;99.90;;;;;;5042201;28;19913;-82
2023/02/05 07:41:33;;;;;;;;;;;6.10;99.90;;;;;;5050144;28;20064;-78
2023/02/05 07:43:59;;;;;;;;;;;6.10;99.90;;;;;;5048006;28;19920;-81
2023/02/05 07:46:24;;;;;;;;;;;6.10;99.90;;;;;;5045911;28;19915;-73
2023/02/05 07:48:50;;;;;;;;;;;6.10;99.90;;;;;;5048611;28;19917;-76
2023/02/05 07:51:17;;;;;;;;;;;6.10;99.90;;;;;;5048465;28;19975;-67
2023/02/05 07:53:43;;;;;;;;;;;6.10;99.90;;;;;;4967195;28;19995;-77
2023/02/05 07:56:08;;;;;;;;;;;6.10;99.90;;;;;;4932344;28;19924;-69
2023/02/05 07:58:34;;;;;;;;;;;6.10;99.90;;;;;;4938691;28;19919;-66
2023/02/05 08:01:01;;;;;;;;;;;6.00;99.90;;;;;;4939153;28;19913;-66
2023/02/05 08:03:27;;;;;;;;;;;6.10;99.90;;;;;;4936671;28;19913;-68
2023/02/05 08:05:52;;;;;;;;;;;6.10;99.90;;;;;;4940026;28;19912;-67
2023/02/05 08:08:18;;;;;;;;;;;6.10;99.90;;;;;;4941048;28;21256;-65
2023/02/05 08:10:44;;;;;;;;;;;6.20;99.90;;;;;;4960992;28;19916;-67
2023/02/05 08:13:10;;;;;;;;;;;6.20;99.90;;;;;;4969561;28;19936;-85
2023/02/05 08:15:38;;;;;;;;;;;6.20;99.90;;;;;;4972835;28;20019;-80
2023/02/05 08:18:04;;;;;;;;;;;6.30;99.90;;;;;;4965847;28;20003;-80
2023/02/05 08:20:30;;;;;;;;;;;6.30;99.90;;;;;;5034013;28;20192;-72
2023/02/05 08:22:56;;;;;;;;;;;6.40;99.90;;;;;;5061760;28;20214;-71
2023/02/05 08:25:22;;;;;;;;;;;6.40;99.90;;;;;;5026427;28;19921;-66
2023/02/05 08:27:48;;;;;;;;;;;6.50;99.90;;;;;;4959282;28;20620;-67
2023/02/05 08:30:15;;;;;;;;;;;6.40;99.90;;;;;;4961652;28;20793;-66
2023/02/05 08:32:40;;;;;;;;;;;6.40;99.90;;;;;;4963174;28;19912;-67
2023/02/05 08:35:06;;;;;;;;;;;6.50;99.90;;;;;;4943886;28;19927;-69
2023/02/05 08:37:32;;;;;;;;;;;6.50;99.90;;;;;;4968877;28;19918;-66
2023/02/05 08:39:58;;;;;;;;;;;6.50;99.90;;;;;;4962650;28;20230;-67
2023/02/05 08:42:23;;;;;;;;;;;6.50;99.90;;;;;;4966180;28;21331;-83
2023/02/05 08:44:49;;;;;;;;;;;6.60;99.90;;;;;;4966675;28;19912;-77
2023/02/05 08:47:18;;;;;;;;;;;6.70;99.90;;;;;;4969318;28;19919;-69
2023/02/05 08:49:43;;;;;;;;;;;6.80;99.90;;;;;;4971438;28;19966;-83
2023/02/05 08:52:09;;;;;;;;;;;6.90;99.90;;;;;;4969856;28;19916;-67
2023/02/05 08:54:35;;;;;;;;;;;6.90;99.90;;;;;;4971265;28;20001;-66
2023/02/05 08:57:01;;;;;;;;;;;6.90;99.90;;;;;;4950000;28;19920;-66
2023/02/05 08:59:26;;;;;;;;;;;6.90;99.90;;;;;;4978936;28;20269;-64
2023/02/05 09:01:52;;;;;;;;;;;6.90;99.90;;;;;;4977537;28;19916;-68
2023/02/05 09:04:19;;;;;;;;;;;6.90;99.90;;;;;;4973746;28;19913;-80
2023/02/05 09:06:44;;;;;;;;;;;7.00;99.90;;;;;;4967878;28;20303;-89
2023/02/05 09:09:11;;;;;;;;;;;7.00;99.90;;;;;;4968424;28;19943;-77
2023/02/05 09:11:37;;;;;;;;;;;7.10;99.90;;;;;;4980594;28;19962;-67
2023/02/05 09:14:03;;;;;;;;;;;7.10;99.90;;;;;;4977006;28;19913;-67
2023/02/05 09:16:29;;;;;;;;;;;7.20;99.90;;;;;;4967370;28;20015;-66
2023/02/05 09:18:55;;;;;;;;;;;7.30;99.90;;;;;;4968744;28;19920;-66
2023/02/05 09:21:21;;;;;;;;;;;7.30;99.90;;;;;;4976414;28;19955;-71
2023/02/05 09:23:47;;;;;;;;;;;7.30;99.90;;;;;;4979256;28;19919;-67
2023/02/05 09:26:12;;;;;;;;;;;7.20;99.90;;;;;;4974791;28;19912;-67
2023/02/05 09:28:38;;;;;;;;;;;7.20;99.90;;;;;;4976460;28;21497;-80
2023/02/05 09:31:06;;;;;;;;;;;7.10;99.90;;;;;;4995015;28;20005;-66
2023/02/05 09:33:31;;;;;;;;;;;7.20;99.90;;;;;;4968579;28;20452;-85
2023/02/05 09:35:57;;;;;;;;;;;7.20;99.90;;;;;;4969379;28;20004;-67
2023/02/05 09:38:23;;;;;;;;;;;7.20;99.90;;;;;;4950207;28;19912;-67
2023/02/05 09:40:58;;;;;;;;;;;7.30;99.90;;;;;;4966619;28;20481;-76
2023/02/05 09:43:23;;;;;;;;;;;7.30;99.90;;;;;;4950308;28;19919;-67
2023/02/05 09:45:54;;;;;;;;;;;7.30;99.90;;;;;;4968115;28;19912;-66
2023/02/05 09:48:31;;;;;;;;;;;7.40;99.90;;;;;;4968564;28;20223;-65
2023/02/05 09:50:58;;;;;;;;;;;7.40;99.90;;;;;;4968367;28;21463;-68
2023/02/05 09:53:27;;;;;;;;;;;7.30;99.90;;;;;;4968115;28;19963;-70
2023/02/05 09:55:53;;;;;;;;;;;7.30;99.90;;;;;;4968082;28;20019;-66
2023/02/05 09:58:25;;;;;;;;;;;7.40;99.90;;;;;;4946194;28;19923;-69
2023/02/05 10:00:58;;;;;;;;;;;7.40;99.90;;;;;;4970025;28;20673;-66
2023/02/05 10:03:28;;;;;;;;;;;7.40;99.90;;;;;;4968146;28;20673;-76
2023/02/05 10:06:12;;;;;;;;;;;7.40;99.90;;;;;;4968313;28;19912;-82
2023/02/05 10:08:56;;;;;;;;;;;7.40;99.90;;;;;;4969583;28;20797;-68
2023/02/05 10:11:41;;;;;;;;;;;7.40;99.90;;;;;;4968102;28;19923;-69
2023/02/05 10:14:12;;;;;;;;;;;7.50;99.90;;;;;;4970212;28;21576;-71
2023/02/05 10:16:38;;;;;;;;;;;7.60;99.90;;;;;;4942660;28;19924;-70
2023/02/05 10:19:04;;;;;;;;;;;7.60;99.90;;;;;;4965294;28;19998;-84
2023/02/05 10:21:29;;;;;;;;;;;7.70;99.90;;;;;;4968120;28;19913;-77
2023/02/05 10:24:09;;;;;;;;;;;7.80;99.90;;;;;;4966302;28;19966;-65
2023/02/05 10:26:42;;;;;;;;;;;7.80;99.90;;;;;;4965230;28;19916;-68
2023/02/05 10:29:17;;;;;;;;;;;7.70;99.90;;;;;;4965765;28;20409;-66
2023/02/05 10:31:53;;;;;;;;;;;7.70;99.90;;;;;;4964490;28;19924;-77
2023/02/05 10:34:18;;;;;;;;;;;7.70;99.90;;;;;;4966062;28;19974;-85
2023/02/05 10:36:47;;;;;;;;;;;7.60;99.90;;;;;;4964142;28;20003;-84
2023/02/05 10:39:14;;;;;;;;;;;7.60;99.90;;;;;;4948410;28;19916;-67
2023/02/05 10:41:52;;;;;;;;;;;7.60;99.90;;;;;;4965627;28;19919;-81
2023/02/05 10:44:32;;;;;;;;;;;7.60;99.90;;;;;;4965001;28;20064;-68
2023/02/05 10:47:02;;;;;;;;;;;7.60;99.90;;;;;;4966829;28;19995;-85
2023/02/05 10:50:03;;;;;;;;;;;7.60;99.90;;;;;;4945582;28;20468;-66
2023/02/05 10:52:30;;;;;;;;;;;7.50;99.90;;;;;;4884738;28;19914;-68
2023/02/05 10:54:55;;;;;;;;;;;7.50;99.90;;;;;;4890464;28;20503;-70
2023/02/05 10:57:22;;;;;;;;;;;7.50;99.90;;;;;;4872479;28;20290;-68
2023/02/05 10:59:58;;;;;;;;;;;7.50;99.90;;;;;;4883356;28;19974;-66
2023/02/05 11:02:30;;;;;;;;;;;7.70;99.90;;;;;;4873132;28;19913;-66
2023/02/05 11:04:59;;;;;;;;;;;7.60;99.90;;;;;;4893964;28;20139;-68
2023/02/05 11:07:24;;;;;;;;;;;7.60;99.90;;;;;;4884730;28;19918;-78
2023/02/05 11:09:50;;;;;;;;;;;7.70;99.90;;;;;;4887087;28;19988;-81
2023/02/05 11:12:26;;;;;;;;;;;7.80;99.90;;;;;;4883601;28;19914;-66
2023/02/05 11:14:59;;;;;;;;;;;7.80;99.90;;;;;;4887002;28;20543;-78
2023/02/05 11:17:27;;;;;;;;;;;7.80;99.90;;;;;;4889350;28;20000;-68
2023/02/05 11:19:58;;;;;;;;;;;7.80;99.90;;;;;;4885751;28;20205;-66
2023/02/05 11:22:26;;;;;;;;;;;7.90;99.90;;;;;;4887017;28;19913;-72
2023/02/05 11:25:03;;;;;;;;;;;7.90;99.90;;;;;;4885954;28;20682;-71
2023/02/05 11:27:33;;;;;;;;;;;7.90;99.90;;;;;;4957061;28;20016;-67
2023/02/05 11:30:18;;;;;;;;;;;8.00;99.90;;;;;;4969311;28;23579;-83
2023/02/05 11:32:44;;;;;;;;;;;7.90;99.90;;;;;;4945870;28;19913;-70
2023/02/05 11:35:39;;;;;;;;;;;8.10;99.90;;;;;;4966189;28;19966;-67
2023/02/05 11:38:05;;;;;;;;;;;8.10;99.90;;;;;;4882427;28;19913;-67
2023/02/05 11:40:31;;;;;;;;;;;8.00;99.90;;;;;;4898550;28;19921;-68
2023/02/05 11:42:59;;;;;;;;;;;8.10;99.90;;;;;;4899901;28;19918;-70
2023/02/05 11:45:25;;;;;;;;;;;8.00;99.90;;;;;;4899932;28;19913;-68
2023/02/05 11:47:51;;;;;;;;;;;8.10;99.90;;;;;;4902340;28;19920;-68
2023/02/05 11:50:22;;;;;;;;;;;8.10;99.90;;;;;;4900117;28;19913;-84
2023/02/05 11:52:47;;;;;;;;;;;8.10;99.90;;;;;;4897142;28;19918;-73
2023/02/05 11:55:24;;;;;;;;;;;8.10;99.90;;;;;;4897471;28;19929;-77
2023/02/05 11:57:57;;;;;;;;;;;8.20;99.90;;;;;;4896238;28;19914;-66
2023/02/05 12:00:22;;;;;;;;;;;8.20;99.90;;;;;;4897586;28;20019;-68
2023/02/05 12:02:52;;;;;;;;;;;8.30;99.90;;;;;;4894394;28;19917;-72
2023/02/05 12:05:22;;;;;;;;;;;8.30;99.90;;;;;;4896552;28;20073;-67
2023/02/05 12:07:57;;;;;;;;;;;8.40;99.90;;;;;;4905353;28;19913;-67
2023/02/05 12:10:27;;;;;;;;;;;8.40;99.90;;;;;;4905469;28;19917;-86
2023/02/05 12:13:17;;;;;;;;;;;8.20;99.90;;;;;;4903977;28;19924;-83
2023/02/05 12:16:15;;;;;;;;;;;8.00;99.90;;;;;;4960602;28;19935;-65
2023/02/05 12:18:50;;;;;;;;;;;8.10;99.90;;;;;;4935470;28;19913;-88
2023/02/05 12:21:27;;;;;;;;;;;8.10;99.90;;;;;;4969415;28;19966;-66
2023/02/05 12:24:05;;;;;;;;;;;8.20;99.90;;;;;;4967526;28;21452;-66
2023/02/05 12:26:42;;;;;;;;;;;8.10;99.90;;;;;;4971436;28;20042;-78
2023/02/05 12:29:27;;;;;;;;;;;8.10;99.90;;;;;;4971623;28;20606;-67
2023/02/05 12:31:56;;;;;;;;;;;8.20;99.90;;;;;;4968552;28;19912;-86
2023/02/05 12:34:40;;;;;;;;;;;8.20;99.90;;;;;;4968876;28;20952;-81
2023/02/05 12:37:24;;;;;;;;;;;8.10;99.90;;;;;;4970012;28;20866;-66
2023/02/05 12:39:58;;;;;;;;;;;8.20;99.90;;;;;;4971021;28;19916;-68
2023/02/05 12:42:24;;;;;;;;;;;8.10;99.90;;;;;;4969716;28;19913;-68
2023/02/05 12:44:52;;;;;;;;;;;8.10;99.90;;;;;;4972521;28;20035;-71
2023/02/05 12:47:18;;;;;;;;;;;8.10;99.90;;;;;;4970012;28;19952;-68
2023/02/05 12:50:10;;;;;;;;;;;8.20;99.90;;;;;;4967704;28;20287;-64
2023/02/05 12:52:54;;;;;;;;;;;8.30;99.90;;;;;;4946531;28;19966;-66
2023/02/05 12:55:29;;;;;;;;;;;8.20;99.90;;;;;;4968252;28;19920;-67
2023/02/05 12:58:00;;;;;;;;;;;8.00;99.90;;;;;;4967078;28;20197;-81
2023/02/05 13:00:29;;;;;;;;;;;8.10;99.90;;;;;;4965482;28;23604;-69
2023/02/05 13:02:57;;;;;;;;;;;8.10;99.90;;;;;;4972292;28;19912;-65
2023/02/05 13:05:23;;;;;;;;;;;8.10;99.90;;;;;;4949199;28;20401;-69
2023/02/05 13:08:04;;;;;;;;;;;8.10;99.90;;;;;;4965605;28;20911;-66
2023/02/05 13:10:40;;;;;;;;;;;8.00;99.90;;;;;;4966449;28;20652;-86
2023/02/05 13:13:10;;;;;;;;;;;8.00;99.90;;;;;;4964360;28;20235;-66
2023/02/05 13:15:39;;;;;;;;;;;7.90;99.90;;;;;;4970384;28;19924;-85
2023/02/05 13:18:22;;;;;;;;;;;7.90;99.90;;;;;;4969448;28;19916;-80
2023/02/05 13:29:12;;;;;;;;;;;8.20;99.90;;;;;;4968507;28;19922;-67
2023/02/05 13:31:40;;;;;;;;;;;8.20;99.90;;;;;;4966151;28;20054;-91
2023/02/05 13:34:08;;;;;;;;;;;8.10;99.90;;;;;;4968367;28;19917;-65
2023/02/05 13:36:36;;;;;;;;;;;8.10;99.90;;;;;;4965067;28;19920;-65
2023/02/05 13:39:05;;;;;;;;;;;8.00;99.90;;;;;;4968680;28;20016;-83
2023/02/05 13:41:30;;;;;;;;;;;8.00;99.90;;;;;;4948768;28;23609;-78
2023/02/05 13:44:19;;;;;;;;;;;8.00;99.90;;;;;;4945476;28;19988;-66
2023/02/05 13:46:52;;;;;;;;;;;8.20;99.90;;;;;;4937989;28;19923;-66
2023/02/05 13:49:30;;;;;;;;;;;8.10;99.90;;;;;;4969006;28;19920;-65
2023/02/05 13:51:56;;;;;;;;;;;8.00;99.90;;;;;;4966832;28;19912;-75
2023/02/05 13:54:31;;;;;;;;;;;7.90;99.90;;;;;;4969486;28;20011;-84
2023/02/05 13:57:00;;;;;;;;;;;7.90;99.90;;;;;;4969969;28;20002;-67
2023/02/05 13:59:37;;;;;;;;;;;8.00;99.90;;;;;;4963112;28;19938;-86
2023/02/05 14:02:17;;;;;;;;;;;8.00;99.90;;;;;;4961154;28;19982;-70
2023/02/05 14:04:52;;;;;;;;;;;8.00;99.90;;;;;;4963766;28;20636;-80
2023/02/05 14:07:26;;;;;;;;;;;7.90;99.90;;;;;;4945279;28;19922;-66
2023/02/05 14:09:55;;;;;;;;;;;7.90;99.90;;;;;;4962307;28;20643;-65
2023/02/05 14:12:41;;;;;;;;;;;7.90;99.90;;;;;;4966674;28;19913;-83
2023/02/05 14:15:16;;;;;;;;;;;7.80;99.90;;;;;;4964653;28;19920;-67
2023/02/05 14:17:41;;;;;;;;;;;7.70;99.90;;;;;;4963795;28;21130;-89
2023/02/05 14:20:25;;;;;;;;;;;7.60;99.90;;;;;;4959538;28;20412;-65
2023/02/05 14:22:50;;;;;;;;;;;7.60;99.90;;;;;;4944342;28;20330;-66
2023/02/05 14:25:35;;;;;;;;;;;7.60;99.90;;;;;;4963260;28;19912;-80
2023/02/05 14:28:16;;;;;;;;;;;7.60;99.90;;;;;;4967301;28;19919;-66
2023/02/05 14:30:50;;;;;;;;;;;7.60;99.90;;;;;;4962512;28;19917;-67
2023/02/05 14:33:28;;;;;;;;;;;7.50;99.90;;;;;;4946347;28;20352;-66
2023/02/05 14:35:55;;;;;;;;;;;7.60;99.90;;;;;;4961868;28;19920;-83
2023/02/05 14:38:29;;;;;;;;;;;7.60;99.90;;;;;;4961130;28;19912;-66
2023/02/05 14:41:03;;;;;;;;;;;7.60;99.90;;;;;;4959155;28;19912;-67
2023/02/05 14:43:37;;;;;;;;;;;7.60;99.90;;;;;;4958044;28;19951;-77
2023/02/05 14:46:05;;;;;;;;;;;7.60;99.90;;;;;;4964468;28;19916;-67
2023/02/05 14:48:32;;;;;;;;;;;7.60;99.90;;;;;;4960200;28;20311;-76
2023/02/05 14:51:13;;;;;;;;;;;7.50;99.90;;;;;;4978127;27;19924;-78
2023/02/05 14:53:40;;;;;;;;;;;7.50;99.90;;;;;;4977421;28;19920;-67
2023/02/05 14:56:06;;;;;;;;;;;7.40;99.90;;;;;;4979060;28;19916;-69